sensor_id;sensor_type;location;lat;lon;timestamp;pressure;altitude;pressure_sealevel;temperature;humidity
3434;BME280;1730;41.932;25.548;2023-04-02T00:00:17;98154.03;;;12.01;100.00
3434;BME280;1730;41.932;25.548;2023-04-02T00:05:28;98160.62;;;11.99;100.00
3434;BME280;1730;41.932;25.548;2023-04-02T00:08:16;98162.03;;;11.95;100.00
3434;BME280;1730;41.932;25.548;2023-04-02T00:10:54;98187.94;;;11.89;100.00
3434;BME280;1730;41.932;25.548;2023-04-02T00:13:47;98164.94;;;11.93;100.00
3434;BME280;1730;41.932;25.548;2023-04-02T00:16:16;98124.59;;;11.56;100.00
3434;BME280;1730;41.932;25.548;2023-04-02T00:18:47;98173.34;;;11.84;100.00
3434;BME280;1730;41.932;25.548;2023-04-02T00:21:23;98187.16;;;11.74;100.00
3434;BME280;1730;41.932;25.548;2023-04-02T00:23:53;98191.34;;;11.62;100.00
3434;BME280;1730;41.932;25.548;2023-04-02T00:26:38;98200.28;;;11.62;100.00
3434;BME280;1730;41.932;25.548;2023-04-02T00:29:08;98203.56;;;11.43;100.00
3434;BME280;1730;41.932;25.548;2023-04-02T00:31:37;98201.87;;;11.42;100.00
3434;BME280;1730;41.932;25.548;2023-04-02T00:34:05;98186.78;;;11.48;100.00
3434;BME280;1730;41.932;25.548;2023-04-02T00:36:32;98194.16;;;11.54;100.00
3434;BME280;1730;41.932;25.548;2023-04-02T00:39:01;98188.38;;;11.57;100.00
3434;BME280;1730;41.932;25.548;2023-04-02T00:41:28;98189.38;;;11.56;100.00
3434;BME280;1730;41.932;25.548;2023-04-02T00:43:56;98167.34;;;11.52;100.00
3434;BME280;1730;41.932;25.548;2023-04-02T00:46:39;98157.00;;;11.56;100.00
3434;BME280;1730;41.932;25.548;2023-04-02T00:49:28;98159.62;;;11.49;100.00
3434;BME280;1730;41.932;25.548;2023-04-02T00:51:59;98176.34;;;11.59;100.00
3434;BME280;1730;41.932;25.548;2023-04-02T00:54:29;98173.00;;;11.57;100.00
3434;BME280;1730;41.932;25.548;2023-04-02T00:56:56;98173.41;;;11.40;100.00
3434;BME280;1730;41.932;25.548;2023-04-02T00:59:32;98178.97;;;11.38;100.00
3434;BME280;1730;41.932;25.548;2023-04-02T01:04:57;98187.47;;;11.35;100.00
3434;BME280;1730;41.932;25.548;2023-04-02T01:07:42;98208.84;;;11.37;100.00
3434;BME280;1730;41.932;25.548;2023-04-02T01:15:36;98212.75;;;11.19;100.00
3434;BME280;1730;41.932;25.548;2023-04-02T01:18:24;98204.31;;;11.22;100.00
3434;BME280;1730;41.932;25.548;2023-04-02T01:24:02;98201.41;;;11.39;100.00
3434;BME280;1730;41.932;25.548;2023-04-02T01:26:55;98202.72;;;11.43;100.00
3434;BME280;1730;41.932;25.548;2023-04-02T01:32:03;98191.25;;;11.55;100.00
3434;BME280;1730;41.932;25.548;2023-04-02T01:34:30;98111.56;;;11.09;100.00
3434;BME280;1730;41.932;25.548;2023-04-02T01:45:19;98198.16;;;11.43;100.00
3434;BME280;1730;41.932;25.548;2023-04-02T01:47:46;98190.91;;;11.44;100.00
3434;BME280;1730;41.932;25.548;2023-04-02T01:50:32;98201.25;;;11.40;100.00
3434;BME280;1730;41.932;25.548;2023-04-02T01:53:04;98191.62;;;11.52;100.00
3434;BME280;1730;41.932;25.548;2023-04-02T01:55:38;98189.16;;;11.36;100.00
3434;BME280;1730;41.932;25.548;2023-04-02T01:58:05;98201.50;;;11.45;100.00
3434;BME280;1730;41.932;25.548;2023-04-02T02:00:33;98188.88;;;11.31;100.00
3434;BME280;1730;41.932;25.548;2023-04-02T02:03:02;98187.19;;;11.30;100.00
3434;BME280;1730;41.932;25.548;2023-04-02T02:05:30;98186.25;;;11.23;100.00
3434;BME280;1730;41.932;25.548;2023-04-02T02:07:57;98138.69;;;10.93;100.00
3434;BME280;1730;41.932;25.548;2023-04-02T02:10:32;98181.78;;;11.15;100.00
3434;BME280;1730;41.932;25.548;2023-04-02T02:12:58;98115.34;;;10.56;100.00
3434;BME280;1730;41.932;25.548;2023-04-02T02:15:25;98187.75;;;10.96;100.00
3434;BME280;1730;41.932;25.548;2023-04-02T02:17:59;98186.63;;;11.05;100.00
3434;BME280;1730;41.932;25.548;2023-04-02T02:20:27;98180.50;;;10.97;100.00
3434;BME280;1730;41.932;25.548;2023-04-02T02:22:55;98176.94;;;11.11;100.00
3434;BME280;1730;41.932;25.548;2023-04-02T02:25:26;98182.72;;;11.08;100.00
3434;BME280;1730;41.932;25.548;2023-04-02T02:35:58;98188.41;;;11.27;100.00
3434;BME280;1730;41.932;25.548;2023-04-02T02:41:20;98207.06;;;10.85;100.00
3434;BME280;1730;41.932;25.548;2023-04-02T02:44:12;98219.69;;;10.84;100.00
3434;BME280;1730;41.932;25.548;2023-04-02T02:49:28;98195.06;;;11.02;100.00
3434;BME280;1730;41.932;25.548;2023-04-02T02:51:59;98150.84;;;10.59;100.00
3434;BME280;1730;41.932;25.548;2023-04-02T02:54:29;98197.13;;;11.15;100.00
3434;BME280;1730;41.932;25.548;2023-04-02T02:57:02;98203.19;;;11.32;100.00
3434;BME280;1730;41.932;25.548;2023-04-02T02:59:29;98178.97;;;11.38;100.00
3434;BME280;1730;41.932;25.548;2023-04-02T03:01:57;98193.66;;;11.50;100.00
3434;BME280;1730;41.932;25.548;2023-04-02T03:04:23;98162.06;;;11.29;100.00
3434;BME280;1730;41.932;25.548;2023-04-02T03:06:51;98208.19;;;11.64;100.00
3434;BME280;1730;41.932;25.548;2023-04-02T03:18:04;98210.13;;;11.70;100.00
3434;BME280;1730;41.932;25.548;2023-04-02T03:20:44;98205.66;;;11.77;100.00
3434;BME280;1730;41.932;25.548;2023-04-02T03:23:19;98207.44;;;11.70;100.00
3434;BME280;1730;41.932;25.548;2023-04-02T03:26:09;98193.59;;;11.44;100.00
3434;BME280;1730;41.932;25.548;2023-04-02T03:28:43;98214.12;;;11.59;100.00
3434;BME280;1730;41.932;25.548;2023-04-02T03:31:18;98222.00;;;11.40;100.00
3434;BME280;1730;41.932;25.548;2023-04-02T03:33:58;98226.66;;;11.31;100.00
3434;BME280;1730;41.932;25.548;2023-04-02T03:36:46;98227.19;;;11.12;100.00
3434;BME280;1730;41.932;25.548;2023-04-02T03:39:20;98234.59;;;10.95;100.00
3434;BME280;1730;41.932;25.548;2023-04-02T03:41:51;98243.91;;;11.07;100.00
3434;BME280;1730;41.932;25.548;2023-04-02T03:44:26;98148.44;;;10.64;100.00
3434;BME280;1730;41.932;25.548;2023-04-02T03:46:57;98233.03;;;11.01;100.00
3434;BME280;1730;41.932;25.548;2023-04-02T03:49:49;98249.63;;;11.27;100.00
3434;BME280;1730;41.932;25.548;2023-04-02T03:52:28;98241.63;;;11.34;100.00
3434;BME280;1730;41.932;25.548;2023-04-02T03:54:56;98230.53;;;11.43;100.00
3434;BME280;1730;41.932;25.548;2023-04-02T03:57:40;98231.84;;;11.62;100.00
3434;BME280;1730;41.932;25.548;2023-04-02T04:00:54;98040.16;;;10.46;100.00
3434;BME280;1730;41.932;25.548;2023-04-02T04:03:26;98151.34;;;11.07;100.00
3434;BME280;1730;41.932;25.548;2023-04-02T04:05:59;98238.16;;;11.69;100.00
3434;BME280;1730;41.932;25.548;2023-04-02T04:08:33;98205.41;;;11.72;100.00
3434;BME280;1730;41.932;25.548;2023-04-02T04:11:07;98229.03;;;11.70;100.00
3434;BME280;1730;41.932;25.548;2023-04-02T04:13:40;98225.50;;;11.69;100.00
3434;BME280;1730;41.932;25.548;2023-04-02T04:16:12;98222.03;;;11.90;100.00
3434;BME280;1730;41.932;25.548;2023-04-02T04:21:49;98108.97;;;10.86;100.00
3434;BME280;1730;41.932;25.548;2023-04-02T04:24:24;98185.50;;;11.44;100.00
3434;BME280;1730;41.932;25.548;2023-04-02T04:26:55;98244.78;;;11.81;100.00
3434;BME280;1730;41.932;25.548;2023-04-02T04:32:25;98253.06;;;11.50;100.00
3434;BME280;1730;41.932;25.548;2023-04-02T04:35:20;98263.50;;;11.53;100.00
3434;BME280;1730;41.932;25.548;2023-04-02T04:37:49;98262.09;;;11.72;100.00
3434;BME280;1730;41.932;25.548;2023-04-02T04:40:25;98264.53;;;11.82;100.00
3434;BME280;1730;41.932;25.548;2023-04-02T04:42:55;98265.66;;;11.87;100.00
3434;BME280;1730;41.932;25.548;2023-04-02T04:45:45;98214.88;;;11.68;100.00
3434;BME280;1730;41.932;25.548;2023-04-02T04:48:18;98264.06;;;11.78;100.00
3434;BME280;1730;41.932;25.548;2023-04-02T04:51:07;98259.69;;;11.77;100.00
3434;BME280;1730;41.932;25.548;2023-04-02T04:53:45;98266.31;;;11.74;100.00
3434;BME280;1730;41.932;25.548;2023-04-02T04:56:12;98253.16;;;11.57;100.00
3434;BME280;1730;41.932;25.548;2023-04-02T04:58:47;98235.84;;;11.51;100.00
3434;BME280;1730;41.932;25.548;2023-04-02T05:01:44;98242.16;;;11.58;100.00
3434;BME280;1730;41.932;25.548;2023-04-02T05:09:54;98252.16;;;12.23;100.00
3434;BME280;1730;41.932;25.548;2023-04-02T05:12:38;98240.37;;;12.52;100.00
3434;BME280;1730;41.932;25.548;2023-04-02T05:15:24;98230.66;;;12.79;100.00
3434;BME280;1730;41.932;25.548;2023-04-02T05:23:18;98221.78;;;13.13;100.00
3434;BME280;1730;41.932;25.548;2023-04-02T05:26:14;98217.53;;;13.31;100.00
3434;BME280;1730;41.932;25.548;2023-04-02T05:28:50;98254.38;;;13.60;100.00
3434;BME280;1730;41.932;25.548;2023-04-02T05:31:29;98252.62;;;13.87;100.00
3434;BME280;1730;41.932;25.548;2023-04-02T05:34:01;98228.94;;;14.09;100.00
3434;BME280;1730;41.932;25.548;2023-04-02T05:36:28;98236.03;;;14.10;100.00
3434;BME280;1730;41.932;25.548;2023-04-02T05:38:55;98227.28;;;14.14;100.00
3434;BME280;1730;41.932;25.548;2023-04-02T05:41:42;98233.88;;;14.53;100.00
3434;BME280;1730;41.932;25.548;2023-04-02T05:44:20;98142.66;;;14.12;100.00
3434;BME280;1730;41.932;25.548;2023-04-02T05:46:50;98242.69;;;14.68;100.00
3434;BME280;1730;41.932;25.548;2023-04-02T05:52:28;98246.84;;;14.64;100.00
3434;BME280;1730;41.932;25.548;2023-04-02T05:54:58;98247.06;;;14.62;100.00
3434;BME280;1730;41.932;25.548;2023-04-02T05:57:46;98246.88;;;14.97;100.00
3434;BME280;1730;41.932;25.548;2023-04-02T06:00:21;98239.97;;;15.01;100.00
3434;BME280;1730;41.932;25.548;2023-04-02T06:02:56;98251.47;;;14.89;100.00
3434;BME280;1730;41.932;25.548;2023-04-02T06:05:37;98247.50;;;15.12;100.00
3434;BME280;1730;41.932;25.548;2023-04-02T06:08:08;98244.38;;;15.21;100.00
3434;BME280;1730;41.932;25.548;2023-04-02T06:10:43;98158.38;;;14.69;100.00
3434;BME280;1730;41.932;25.548;2023-04-02T06:13:15;98251.47;;;15.29;100.00
3434;BME280;1730;41.932;25.548;2023-04-02T06:15:42;98247.03;;;15.74;100.00
3434;BME280;1730;41.932;25.548;2023-04-02T06:18:14;98251.84;;;15.65;100.00
3434;BME280;1730;41.932;25.548;2023-04-02T06:20:44;98233.78;;;15.84;100.00
3434;BME280;1730;41.932;25.548;2023-04-02T06:23:11;98218.09;;;15.93;100.00
3434;BME280;1730;41.932;25.548;2023-04-02T06:25:41;98260.44;;;16.20;100.00
3434;BME280;1730;41.932;25.548;2023-04-02T06:28:14;98261.50;;;16.19;100.00
3434;BME280;1730;41.932;25.548;2023-04-02T06:30:44;98261.06;;;16.22;100.00
3434;BME280;1730;41.932;25.548;2023-04-02T06:33:11;98247.34;;;16.04;100.00
3434;BME280;1730;41.932;25.548;2023-04-02T06:35:41;98259.12;;;15.78;100.00
3434;BME280;1730;41.932;25.548;2023-04-02T06:38:15;98260.56;;;15.87;99.52
3434;BME280;1730;41.932;25.548;2023-04-02T06:43:38;98168.06;;;15.36;99.56
3434;BME280;1730;41.932;25.548;2023-04-02T06:46:30;98278.91;;;16.05;97.67
3434;BME280;1730;41.932;25.548;2023-04-02T06:49:37;98281.34;;;16.26;96.86
3434;BME280;1730;41.932;25.548;2023-04-02T06:52:22;98295.72;;;16.84;93.73
3434;BME280;1730;41.932;25.548;2023-04-02T06:54:49;98286.06;;;16.88;92.52
3434;BME280;1730;41.932;25.548;2023-04-02T06:57:15;98239.56;;;16.52;88.06
3434;BME280;1730;41.932;25.548;2023-04-02T06:59:40;98298.31;;;17.29;86.80
3434;BME280;1730;41.932;25.548;2023-04-02T07:02:32;98069.16;;;15.95;82.56
3434;BME280;1730;41.932;25.548;2023-04-02T07:05:07;98301.06;;;17.47;76.97
3434;BME280;1730;41.932;25.548;2023-04-02T07:07:36;98285.72;;;17.52;75.26
3434;BME280;1730;41.932;25.548;2023-04-02T07:10:02;98276.41;;;17.67;73.03
3434;BME280;1730;41.932;25.548;2023-04-02T07:12:27;98290.28;;;18.20;70.13
3434;BME280;1730;41.932;25.548;2023-04-02T07:14:53;98300.53;;;18.06;71.92
3434;BME280;1730;41.932;25.548;2023-04-02T07:17:19;98301.34;;;17.88;70.86
3434;BME280;1730;41.932;25.548;2023-04-02T07:19:46;98296.03;;;17.93;66.34
3434;BME280;1730;41.932;25.548;2023-04-02T07:22:17;98287.97;;;17.62;67.88
3434;BME280;1730;41.932;25.548;2023-04-02T07:24:44;98257.88;;;17.26;68.32
3434;BME280;1730;41.932;25.548;2023-04-02T07:27:11;98063.47;;;16.03;68.86
3434;BME280;1730;41.932;25.548;2023-04-02T07:29:37;98301.16;;;17.40;70.69
3434;BME280;1730;41.932;25.548;2023-04-02T07:32:12;98296.63;;;17.77;71.14
3434;BME280;1730;41.932;25.548;2023-04-02T07:34:40;98306.72;;;17.77;70.96
3434;BME280;1730;41.932;25.548;2023-04-02T07:37:12;98307.53;;;17.52;71.24
3434;BME280;1730;41.932;25.548;2023-04-02T07:39:39;98331.16;;;17.09;71.89
3434;BME280;1730;41.932;25.548;2023-04-02T07:42:06;98304.25;;;17.19;73.63
3434;BME280;1730;41.932;25.548;2023-04-02T07:44:32;98290.50;;;17.07;74.03
3434;BME280;1730;41.932;25.548;2023-04-02T07:46:57;98224.69;;;16.86;73.05
3434;BME280;1730;41.932;25.548;2023-04-02T07:49:23;98318.97;;;17.11;75.96
3434;BME280;1730;41.932;25.548;2023-04-02T07:51:50;98327.78;;;17.38;74.26
3434;BME280;1730;41.932;25.548;2023-04-02T07:54:16;98316.78;;;17.27;73.73
3434;BME280;1730;41.932;25.548;2023-04-02T07:56:42;98319.56;;;17.45;72.12
3434;BME280;1730;41.932;25.548;2023-04-02T07:59:07;98328.12;;;17.24;72.78
3434;BME280;1730;41.932;25.548;2023-04-02T08:01:33;98319.28;;;17.53;72.81
3434;BME280;1730;41.932;25.548;2023-04-02T08:04:00;98314.88;;;17.27;73.18
3434;BME280;1730;41.932;25.548;2023-04-02T08:06:28;98322.63;;;17.80;74.34
3434;BME280;1730;41.932;25.548;2023-04-02T08:08:54;98322.00;;;17.53;72.37
3434;BME280;1730;41.932;25.548;2023-04-02T08:11:20;98312.72;;;17.36;72.27
3434;BME280;1730;41.932;25.548;2023-04-02T08:13:45;98310.88;;;17.54;71.08
3434;BME280;1730;41.932;25.548;2023-04-02T08:16:11;98303.78;;;17.29;69.94
3434;BME280;1730;41.932;25.548;2023-04-02T08:18:37;98299.75;;;17.31;72.30
3434;BME280;1730;41.932;25.548;2023-04-02T08:21:06;98318.44;;;17.77;70.60
3434;BME280;1730;41.932;25.548;2023-04-02T08:23:33;98333.97;;;17.27;71.35
3434;BME280;1730;41.932;25.548;2023-04-02T08:25:59;98299.84;;;17.43;73.22
3434;BME280;1730;41.932;25.548;2023-04-02T08:28:25;98302.63;;;17.86;70.33
3434;BME280;1730;41.932;25.548;2023-04-02T08:30:51;98313.22;;;17.76;68.49
3434;BME280;1730;41.932;25.548;2023-04-02T08:33:17;98311.75;;;18.16;68.27
3434;BME280;1730;41.932;25.548;2023-04-02T08:35:45;98290.81;;;17.92;69.17
3434;BME280;1730;41.932;25.548;2023-04-02T08:38:18;98273.59;;;17.91;70.19
3434;BME280;1730;41.932;25.548;2023-04-02T08:40:50;98310.28;;;18.14;68.27
3434;BME280;1730;41.932;25.548;2023-04-02T08:48:48;98314.59;;;17.85;66.08
3434;BME280;1730;41.932;25.548;2023-04-02T08:51:25;98223.47;;;17.31;65.96
3434;BME280;1730;41.932;25.548;2023-04-02T08:53:58;98329.16;;;18.70;63.79
3434;BME280;1730;41.932;25.548;2023-04-02T08:56:29;98109.69;;;17.45;61.94
3434;BME280;1730;41.932;25.548;2023-04-02T09:01:51;98311.66;;;18.41;61.66
3434;BME280;1730;41.932;25.548;2023-04-02T09:04:22;98030.28;;;16.44;62.68
3434;BME280;1730;41.932;25.548;2023-04-02T09:06:53;98113.28;;;16.84;63.89
3434;BME280;1730;41.932;25.548;2023-04-02T09:09:21;98208.81;;;17.69;64.80
3434;BME280;1730;41.932;25.548;2023-04-02T09:11:53;98314.78;;;18.74;63.37
3434;BME280;1730;41.932;25.548;2023-04-02T09:14:49;98189.72;;;17.87;62.53
3434;BME280;1730;41.932;25.548;2023-04-02T09:17:21;98307.47;;;19.28;62.93
3434;BME280;1730;41.932;25.548;2023-04-02T09:19:56;98297.81;;;19.55;63.00
3434;BME280;1730;41.932;25.548;2023-04-02T09:22:25;98299.22;;;19.05;59.65
3434;BME280;1730;41.932;25.548;2023-04-02T09:25:02;98311.94;;;18.99;60.24
3434;BME280;1730;41.932;25.548;2023-04-02T09:27:32;98277.63;;;19.03;58.06
3434;BME280;1730;41.932;25.548;2023-04-02T09:30:26;98299.97;;;19.12;56.84
3434;BME280;1730;41.932;25.548;2023-04-02T09:32:55;98284.16;;;19.14;55.86
3434;BME280;1730;41.932;25.548;2023-04-02T09:43:45;98282.59;;;19.48;53.78
3434;BME280;1730;41.932;25.548;2023-04-02T09:46:23;98281.97;;;19.80;54.16
3434;BME280;1730;41.932;25.548;2023-04-02T09:48:58;98281.69;;;20.05;52.57
3434;BME280;1730;41.932;25.548;2023-04-02T09:51:30;98283.59;;;20.16;52.83
3434;BME280;1730;41.932;25.548;2023-04-02T09:54:16;98285.28;;;20.06;53.29
3434;BME280;1730;41.932;25.548;2023-04-02T09:57:19;98288.63;;;20.31;49.64
3434;BME280;1730;41.932;25.548;2023-04-02T10:00:09;98261.94;;;20.15;48.49
3434;BME280;1730;41.932;25.548;2023-04-02T10:02:39;98281.19;;;20.32;47.67
3434;BME280;1730;41.932;25.548;2023-04-02T10:05:09;98280.84;;;20.40;48.27
3434;BME280;1730;41.932;25.548;2023-04-02T10:07:41;98290.88;;;20.22;47.34
3434;BME280;1730;41.932;25.548;2023-04-02T10:13:05;98286.22;;;20.63;47.22
3434;BME280;1730;41.932;25.548;2023-04-02T10:15:59;98276.25;;;20.85;46.07
3434;BME280;1730;41.932;25.548;2023-04-02T10:21:11;97615.31;;;16.53;45.78
3434;BME280;1730;41.932;25.548;2023-04-02T10:23:38;98273.25;;;20.30;45.52
3434;BME280;1730;41.932;25.548;2023-04-02T10:38:25;98276.84;;;19.84;45.50
3434;BME280;1730;41.932;25.548;2023-04-02T10:43:53;98162.84;;;19.50;44.31
3434;BME280;1730;41.932;25.548;2023-04-02T10:49:37;98312.78;;;20.62;43.46
3434;BME280;1730;41.932;25.548;2023-04-02T10:52:11;98271.03;;;20.84;42.69
3434;BME280;1730;41.932;25.548;2023-04-02T10:59:56;98261.72;;;21.63;41.14
3434;BME280;1730;41.932;25.548;2023-04-02T11:02:38;98256.19;;;20.96;41.56
3434;BME280;1730;41.932;25.548;2023-04-02T11:05:40;98253.44;;;20.96;42.53
3434;BME280;1730;41.932;25.548;2023-04-02T11:10:45;98267.91;;;21.08;42.26
3434;BME280;1730;41.932;25.548;2023-04-02T11:13:30;98262.59;;;20.74;42.98
3434;BME280;1730;41.932;25.548;2023-04-02T11:15:58;98236.81;;;20.86;42.38
3434;BME280;1730;41.932;25.548;2023-04-02T11:18:25;98241.84;;;21.39;42.59
3434;BME280;1730;41.932;25.548;2023-04-02T11:20:57;98252.06;;;21.44;42.12
3434;BME280;1730;41.932;25.548;2023-04-02T11:23:35;98157.75;;;20.95;42.18
3434;BME280;1730;41.932;25.548;2023-04-02T11:26:27;98237.09;;;21.51;41.70
3434;BME280;1730;41.932;25.548;2023-04-02T11:29:04;98233.09;;;21.59;41.65
3434;BME280;1730;41.932;25.548;2023-04-02T11:31:32;98233.78;;;21.49;41.82
3434;BME280;1730;41.932;25.548;2023-04-02T11:33:57;98240.16;;;21.05;42.07
3434;BME280;1730;41.932;25.548;2023-04-02T11:44:43;98227.63;;;21.81;41.84
3434;BME280;1730;41.932;25.548;2023-04-02T11:52:21;98230.50;;;22.08;41.95
3434;BME280;1730;41.932;25.548;2023-04-02T11:55:04;98216.16;;;22.00;41.91
3434;BME280;1730;41.932;25.548;2023-04-02T12:00:51;98207.75;;;22.34;41.71
3434;BME280;1730;41.932;25.548;2023-04-02T12:03:36;98212.91;;;21.48;42.47
3434;BME280;1730;41.932;25.548;2023-04-02T12:06:49;98206.47;;;21.76;41.95
3434;BME280;1730;41.932;25.548;2023-04-02T12:09:26;98205.84;;;21.52;42.10
3434;BME280;1730;41.932;25.548;2023-04-02T12:11:58;98204.44;;;21.88;42.01
3434;BME280;1730;41.932;25.548;2023-04-02T12:17:15;98219.13;;;22.21;41.67
3434;BME280;1730;41.932;25.548;2023-04-02T12:19:47;98124.34;;;20.98;42.20
3434;BME280;1730;41.932;25.548;2023-04-02T12:22:25;98192.09;;;20.69;43.23
3434;BME280;1730;41.932;25.548;2023-04-02T12:24:58;98183.75;;;20.92;43.23
3434;BME280;1730;41.932;25.548;2023-04-02T12:27:26;98185.13;;;21.11;43.11
3434;BME280;1730;41.932;25.548;2023-04-02T12:29:53;98182.66;;;21.43;43.00
3434;BME280;1730;41.932;25.548;2023-04-02T12:32:29;98168.94;;;21.43;43.03
3434;BME280;1730;41.932;25.548;2023-04-02T12:34:56;98167.78;;;21.39;43.36
3434;BME280;1730;41.932;25.548;2023-04-02T12:37:25;98084.00;;;20.43;43.49
3434;BME280;1730;41.932;25.548;2023-04-02T12:40:03;98048.31;;;20.55;43.92
3434;BME280;1730;41.932;25.548;2023-04-02T12:42:39;98053.34;;;20.63;43.92
3434;BME280;1730;41.932;25.548;2023-04-02T12:45:05;98145.81;;;21.78;43.34
3434;BME280;1730;41.932;25.548;2023-04-02T12:47:31;97927.34;;;20.63;43.02
3434;BME280;1730;41.932;25.548;2023-04-02T12:49:59;98166.53;;;22.29;42.44
3434;BME280;1730;41.932;25.548;2023-04-02T12:52:27;98153.53;;;22.73;41.92
3434;BME280;1730;41.932;25.548;2023-04-02T12:54:56;98155.63;;;22.39;41.50
3434;BME280;1730;41.932;25.548;2023-04-02T12:59:52;98160.84;;;22.14;42.23
3434;BME280;1730;41.932;25.548;2023-04-02T13:02:21;97965.09;;;20.78;42.42
3434;BME280;1730;41.932;25.548;2023-04-02T13:04:57;98145.56;;;21.79;42.79
3434;BME280;1730;41.932;25.548;2023-04-02T13:07:31;98148.84;;;21.59;43.12
3434;BME280;1730;41.932;25.548;2023-04-02T13:09:59;98150.69;;;22.14;43.01
3434;BME280;1730;41.932;25.548;2023-04-02T13:12:35;98151.63;;;22.25;42.73
3434;BME280;1730;41.932;25.548;2023-04-02T13:15:04;98155.69;;;22.44;42.28
3434;BME280;1730;41.932;25.548;2023-04-02T13:18:00;98147.50;;;22.00;43.13
3434;BME280;1730;41.932;25.548;2023-04-02T13:20:35;98040.84;;;21.44;42.85
3434;BME280;1730;41.932;25.548;2023-04-02T13:25:45;98157.00;;;21.71;43.99
3434;BME280;1730;41.932;25.548;2023-04-02T13:28:11;98145.44;;;22.13;43.01
3434;BME280;1730;41.932;25.548;2023-04-02T13:30:36;98143.06;;;22.48;42.99
3434;BME280;1730;41.932;25.548;2023-04-02T13:33:02;98121.81;;;22.38;42.68
3434;BME280;1730;41.932;25.548;2023-04-02T13:35:27;97915.25;;;20.59;43.33
3434;BME280;1730;41.932;25.548;2023-04-02T13:37:53;98136.22;;;21.97;43.51
3434;BME280;1730;41.932;25.548;2023-04-02T13:40:18;98131.59;;;22.24;43.64
3434;BME280;1730;41.932;25.548;2023-04-02T13:42:45;98137.34;;;22.50;42.80
3434;BME280;1730;41.932;25.548;2023-04-02T13:45:30;97977.72;;;21.17;42.96
3434;BME280;1730;41.932;25.548;2023-04-02T13:47:56;98133.19;;;22.20;42.98
3434;BME280;1730;41.932;25.548;2023-04-02T13:50:26;98132.50;;;22.35;43.10
3434;BME280;1730;41.932;25.548;2023-04-02T13:52:53;98134.59;;;22.50;43.13
3434;BME280;1730;41.932;25.548;2023-04-02T13:55:22;98132.50;;;22.35;43.12
3434;BME280;1730;41.932;25.548;2023-04-02T13:57:50;98120.97;;;22.38;43.21
3434;BME280;1730;41.932;25.548;2023-04-02T14:00:16;98139.56;;;22.04;43.33
3434;BME280;1730;41.932;25.548;2023-04-02T14:02:47;98124.06;;;22.41;43.30
3434;BME280;1730;41.932;25.548;2023-04-02T14:05:30;98015.53;;;22.12;43.21
3434;BME280;1730;41.932;25.548;2023-04-02T14:16:30;98121.09;;;22.48;43.26
3434;BME280;1730;41.932;25.548;2023-04-02T14:19:12;98116.72;;;21.98;44.28
3434;BME280;1730;41.932;25.548;2023-04-02T14:24:29;98127.63;;;22.15;44.04
3434;BME280;1730;41.932;25.548;2023-04-02T14:28:20;98134.94;;;22.58;43.73
3434;BME280;1730;41.932;25.548;2023-04-02T14:30:25;98131.94;;;22.06;44.39
3434;BME280;1730;41.932;25.548;2023-04-02T14:32:55;98117.13;;;22.07;44.92
3434;BME280;1730;41.932;25.548;2023-04-02T14:35:27;98121.62;;;22.18;44.56
3434;BME280;1730;41.932;25.548;2023-04-02T14:48:19;98111.97;;;22.42;44.27
3434;BME280;1730;41.932;25.548;2023-04-02T14:50:56;98116.28;;;22.07;45.28
3434;BME280;1730;41.932;25.548;2023-04-02T14:53:30;98110.87;;;22.43;44.97
3434;BME280;1730;41.932;25.548;2023-04-02T14:56:04;97923.88;;;20.89;46.83
3434;BME280;1730;41.932;25.548;2023-04-02T14:58:39;98119.41;;;22.15;47.30
3434;BME280;1730;41.932;25.548;2023-04-02T15:01:18;98127.53;;;22.32;48.00
3434;BME280;1730;41.932;25.548;2023-04-02T15:03:52;98129.50;;;22.36;48.54
3434;BME280;1730;41.932;25.548;2023-04-02T15:06:26;98135.00;;;22.63;48.37
3434;BME280;1730;41.932;25.548;2023-04-02T15:09:13;98136.66;;;22.37;48.77
3434;BME280;1730;41.932;25.548;2023-04-02T15:11:45;98015.16;;;21.50;49.08
3434;BME280;1730;41.932;25.548;2023-04-02T15:16:57;98139.03;;;22.02;48.97
3434;BME280;1730;41.932;25.548;2023-04-02T15:19:22;98140.03;;;21.96;49.05
3434;BME280;1730;41.932;25.548;2023-04-02T15:27:28;98148.50;;;21.94;49.90
3434;BME280;1730;41.932;25.548;2023-04-02T15:32:45;98150.00;;;22.02;50.17
3434;BME280;1730;41.932;25.548;2023-04-02T15:35:32;98016.34;;;21.37;49.20
3434;BME280;1730;41.932;25.548;2023-04-02T15:43:29;98151.78;;;22.13;48.60
3434;BME280;1730;41.932;25.548;2023-04-02T15:54:20;98163.34;;;22.15;48.24
3434;BME280;1730;41.932;25.548;2023-04-02T15:57:01;98167.66;;;21.89;49.38
3434;BME280;1730;41.932;25.548;2023-04-02T16:05:25;98165.88;;;21.40;55.06
3434;BME280;1730;41.932;25.548;2023-04-02T16:08:01;98182.94;;;21.25;57.02
3434;BME280;1730;41.932;25.548;2023-04-02T16:10:36;98188.50;;;20.97;58.62
3434;BME280;1730;41.932;25.548;2023-04-02T16:13:13;98178.09;;;20.82;60.60
3434;BME280;1730;41.932;25.548;2023-04-02T16:15:48;98060.25;;;19.87;62.13
3434;BME280;1730;41.932;25.548;2023-04-02T16:18:32;98181.97;;;20.53;62.55
3434;BME280;1730;41.932;25.548;2023-04-02T16:21:02;98175.00;;;20.34;64.58
3434;BME280;1730;41.932;25.548;2023-04-02T16:23:36;98042.53;;;19.38;66.85
3434;BME280;1730;41.932;25.548;2023-04-02T16:31:42;98179.31;;;19.90;73.65
3434;BME280;1730;41.932;25.548;2023-04-02T16:34:39;98196.00;;;19.65;76.96
3434;BME280;1730;41.932;25.548;2023-04-02T16:37:30;98094.41;;;18.98;79.10
3434;BME280;1730;41.932;25.548;2023-04-02T16:53:39;98213.22;;;19.07;93.12
3434;BME280;1730;41.932;25.548;2023-04-02T17:01:44;98166.81;;;18.66;100.00
3434;BME280;1730;41.932;25.548;2023-04-02T17:06:50;98211.38;;;18.48;100.00
3434;BME280;1730;41.932;25.548;2023-04-02T17:09:47;98211.41;;;18.30;100.00
3434;BME280;1730;41.932;25.548;2023-04-02T17:12:33;98216.47;;;18.15;100.00
3434;BME280;1730;41.932;25.548;2023-04-02T17:15:10;98200.94;;;17.97;100.00
3434;BME280;1730;41.932;25.548;2023-04-02T17:17:39;98211.69;;;18.10;100.00
3434;BME280;1730;41.932;25.548;2023-04-02T17:20:14;98216.41;;;18.03;100.00
3434;BME280;1730;41.932;25.548;2023-04-02T17:22:41;98222.63;;;17.92;100.00
3434;BME280;1730;41.932;25.548;2023-04-02T17:25:16;98237.31;;;17.91;100.00